Time;durP1;ratioP1;P1;durP2;ratioP2;P2;SDS_P1;SDS_P2;PMS_P1;PMS_P2;Temp;Humidity;BMP_temperature;BMP_pressure;BME280_temperature;BME280_humidity;BME280_pressure;Samples;Min_cycle;Max_cycle;Signal;HPM_P1;HPM_P2
2024/03/31 00:01:21;;;;;;;34.87;17.30;;;;;;;;;;4905544;28;20225;-74
2024/03/31 00:03:49;;;;;;;40.00;19.73;;;;;;;;;;4902094;28;20286;-73
2024/03/31 00:06:14;;;;;;;37.33;20.43;;;;;;;;;;4898290;29;20635;-73
2024/03/31 00:08:45;;;;;;;35.97;19.83;;;;;;;;;;4915442;28;20235;-73
2024/03/31 00:11:12;;;;;;;33.67;18.40;;;;;;;;;;4902189;28;20229;-74
2024/03/31 00:13:40;;;;;;;36.90;19.30;;;;;;;;;;4906676;28;20224;-73
2024/03/31 00:16:08;;;;;;;32.40;19.30;;;;;;;;;;4904523;28;20304;-72
2024/03/31 00:18:33;;;;;;;34.00;20.50;;;;;;;;;;4923244;28;20224;-73
2024/03/31 00:20:59;;;;;;;38.23;21.30;;;;;;;;;;4917899;28;20742;-74
2024/03/31 00:23:24;;;;;;;35.10;20.30;;;;;;;;;;4901266;28;20247;-73
2024/03/31 00:25:59;;;;;;;37.07;19.87;;;;;;;;;;4905986;28;20220;-73
2024/03/31 00:28:29;;;;;;;34.23;19.57;;;;;;;;;;4921696;28;20224;-73
2024/03/31 00:30:57;;;;;;;32.37;19.20;;;;;;;;;;4932194;28;20220;-73
2024/03/31 00:33:23;;;;;;;33.90;18.77;;;;;;;;;;4917248;28;20806;-73
2024/03/31 00:35:57;;;;;;;30.17;19.20;;;;;;;;;;4906489;29;20682;-73
2024/03/31 00:38:23;;;;;;;34.00;19.13;;;;;;;;;;4920358;28;20224;-73
2024/03/31 00:40:53;;;;;;;37.60;21.20;;;;;;;;;;4917240;29;20213;-73
2024/03/31 00:43:23;;;;;;;34.30;20.00;;;;;;;;;;4933308;28;20233;-75
2024/03/31 00:45:49;;;;;;;34.67;19.87;;;;;;;;;;4921280;29;20224;-73
2024/03/31 00:48:14;;;;;;;37.90;21.07;;;;;;;;;;4924573;28;20715;-73
2024/03/31 00:50:44;;;;;;;31.43;20.43;;;;;;;;;;4920090;28;20746;-72
2024/03/31 00:53:10;;;;;;;38.47;21.70;;;;;;;;;;4903616;29;20577;-74
2024/03/31 00:55:38;;;;;;;42.43;23.80;;;;;;;;;;4901690;29;20228;-73
2024/03/31 00:58:08;;;;;;;40.87;24.33;;;;;;;;;;4905881;28;20228;-74
2024/03/31 01:00:33;;;;;;;40.20;28.10;;;;;;;;;;4903843;29;20698;-73
2024/03/31 01:03:01;;;;;;;46.23;34.23;;;;;;;;;;4918304;28;20232;-73
2024/03/31 01:05:27;;;;;;;50.80;35.60;;;;;;;;;;4931606;28;20224;-73
2024/03/31 01:07:58;;;;;;;47.43;36.27;;;;;;;;;;4904464;29;20296;-73
2024/03/31 01:10:26;;;;;;;45.40;35.50;;;;;;;;;;4921916;28;20720;-75
2024/03/31 01:12:56;;;;;;;43.00;30.13;;;;;;;;;;4920498;29;20232;-74
2024/03/31 01:15:24;;;;;;;38.13;27.00;;;;;;;;;;4894835;29;20691;-74
2024/03/31 01:17:50;;;;;;;42.60;29.43;;;;;;;;;;4918068;28;20223;-73
2024/03/31 01:20:20;;;;;;;39.27;31.93;;;;;;;;;;4929689;28;20291;-74
2024/03/31 01:22:47;;;;;;;39.00;30.53;;;;;;;;;;4923904;28;20315;-74
2024/03/31 01:25:18;;;;;;;42.93;30.43;;;;;;;;;;4885865;28;20320;-74
2024/03/31 01:27:48;;;;;;;41.83;28.43;;;;;;;;;;4935514;28;20335;-75
2024/03/31 01:30:18;;;;;;;36.13;24.10;;;;;;;;;;4926209;28;20287;-74
2024/03/31 01:32:48;;;;;;;39.83;23.17;;;;;;;;;;4924389;28;20836;-73
2024/03/31 01:35:15;;;;;;;36.90;23.17;;;;;;;;;;4929157;28;20585;-74
2024/03/31 01:37:41;;;;;;;40.20;23.40;;;;;;;;;;4906135;28;20666;-73
2024/03/31 01:40:07;;;;;;;34.73;22.93;;;;;;;;;;4921096;28;20224;-74
2024/03/31 01:42:32;;;;;;;38.53;25.33;;;;;;;;;;4925831;28;20235;-73
2024/03/31 01:45:00;;;;;;;36.87;24.27;;;;;;;;;;4905438;28;20252;-74
2024/03/31 01:47:25;;;;;;;38.00;25.90;;;;;;;;;;4924937;28;20371;-75
2024/03/31 01:49:51;;;;;;;41.63;27.20;;;;;;;;;;4900022;28;20236;-74
2024/03/31 01:52:19;;;;;;;44.87;31.43;;;;;;;;;;4900559;28;20567;-73
2024/03/31 01:54:47;;;;;;;48.87;35.67;;;;;;;;;;4930546;28;20231;-73
2024/03/31 01:57:12;;;;;;;41.17;31.83;;;;;;;;;;4934281;28;20248;-73
2024/03/31 01:59:38;;;;;;;43.93;34.50;;;;;;;;;;4901115;29;20296;-73
2024/03/31 02:02:06;;;;;;;50.87;38.90;;;;;;;;;;4917997;28;20263;-73
2024/03/31 02:04:35;;;;;;;51.07;38.77;;;;;;;;;;4914810;28;20232;-73
2024/03/31 02:07:00;;;;;;;49.80;40.60;;;;;;;;;;4903079;28;20239;-72
2024/03/31 02:09:33;;;;;;;48.20;39.37;;;;;;;;;;4917169;28;20221;-72
2024/03/31 02:12:01;;;;;;;48.67;37.87;;;;;;;;;;4898623;29;20264;-73
2024/03/31 02:14:28;;;;;;;48.63;39.37;;;;;;;;;;4908736;28;20714;-73
2024/03/31 02:16:55;;;;;;;49.20;38.37;;;;;;;;;;4901007;28;20295;-73
2024/03/31 02:19:23;;;;;;;43.07;36.87;;;;;;;;;;4917581;28;20247;-73
2024/03/31 02:21:51;;;;;;;45.47;35.83;;;;;;;;;;4920799;28;20243;-72
2024/03/31 02:24:19;;;;;;;45.03;35.13;;;;;;;;;;4915990;28;20232;-75
2024/03/31 02:26:47;;;;;;;43.67;35.03;;;;;;;;;;4911257;28;20717;-72
2024/03/31 02:29:15;;;;;;;40.50;35.00;;;;;;;;;;4901091;28;20220;-74
2024/03/31 02:31:45;;;;;;;44.87;35.43;;;;;;;;;;4932868;28;20703;-73
2024/03/31 02:34:14;;;;;;;44.10;36.80;;;;;;;;;;4908676;28;20238;-74
2024/03/31 02:36:42;;;;;;;46.77;35.97;;;;;;;;;;4921808;28;20233;-74
2024/03/31 02:39:08;;;;;;;41.10;35.33;;;;;;;;;;4908625;28;20216;-75
2024/03/31 02:41:41;;;;;;;42.97;36.10;;;;;;;;;;4920510;28;20482;-73
2024/03/31 02:44:07;;;;;;;55.33;39.93;;;;;;;;;;4918010;28;20312;-74
2024/03/31 02:46:32;;;;;;;51.43;42.83;;;;;;;;;;4909773;28;20619;-73
2024/03/31 02:49:03;;;;;;;53.17;44.00;;;;;;;;;;4903839;28;20282;-74
2024/03/31 02:51:28;;;;;;;53.37;45.90;;;;;;;;;;4901625;28;20652;-73
2024/03/31 02:53:54;;;;;;;48.20;40.73;;;;;;;;;;4916503;28;20232;-74
2024/03/31 02:56:21;;;;;;;47.50;42.33;;;;;;;;;;4919142;28;20220;-74
2024/03/31 02:58:48;;;;;;;50.17;43.73;;;;;;;;;;4885947;29;20224;-74
2024/03/31 03:01:15;;;;;;;49.20;43.00;;;;;;;;;;4913911;28;20624;-73
2024/03/31 03:03:43;;;;;;;46.80;41.03;;;;;;;;;;4930240;28;20327;-73
2024/03/31 03:06:16;;;;;;;51.23;44.27;;;;;;;;;;4913177;28;20216;-74
2024/03/31 03:08:44;;;;;;;57.60;47.47;;;;;;;;;;4916073;28;20626;-73
2024/03/31 03:11:19;;;;;;;60.33;50.23;;;;;;;;;;4919126;28;20220;-73
2024/03/31 03:13:47;;;;;;;57.37;48.43;;;;;;;;;;4911791;29;20601;-74
2024/03/31 03:16:16;;;;;;;59.10;50.67;;;;;;;;;;4901264;28;20356;-74
2024/03/31 03:18:46;;;;;;;53.77;47.33;;;;;;;;;;4923155;28;20232;-74
2024/03/31 03:21:16;;;;;;;57.37;49.13;;;;;;;;;;4887464;28;20223;-76
2024/03/31 03:23:47;;;;;;;58.80;50.30;;;;;;;;;;4917480;28;20697;-74
2024/03/31 03:26:12;;;;;;;61.00;50.93;;;;;;;;;;4915917;28;20222;-74
2024/03/31 03:28:38;;;;;;;65.07;51.30;;;;;;;;;;4907783;28;20220;-74
2024/03/31 03:31:07;;;;;;;62.27;52.30;;;;;;;;;;4904219;29;20235;-74
2024/03/31 03:33:38;;;;;;;60.80;50.87;;;;;;;;;;4905227;29;20235;-74
2024/03/31 03:36:07;;;;;;;62.33;51.47;;;;;;;;;;4924253;28;20706;-75
2024/03/31 03:38:32;;;;;;;66.60;52.13;;;;;;;;;;4886884;29;20230;-73
2024/03/31 03:41:05;;;;;;;68.60;51.83;;;;;;;;;;4900832;28;20228;-74
2024/03/31 03:43:33;;;;;;;60.70;51.37;;;;;;;;;;4920736;28;20591;-74
2024/03/31 03:46:06;;;;;;;63.57;53.10;;;;;;;;;;4911708;28;20586;-74
2024/03/31 03:48:35;;;;;;;67.23;53.27;;;;;;;;;;4919580;29;20223;-74
2024/03/31 03:51:03;;;;;;;59.33;50.03;;;;;;;;;;4922922;28;20228;-74
2024/03/31 03:53:31;;;;;;;60.20;51.83;;;;;;;;;;4922037;28;20225;-74
2024/03/31 03:56:02;;;;;;;63.40;53.03;;;;;;;;;;4897788;29;20239;-74
2024/03/31 04:02:15;;;;;;;60.67;50.00;;;;;;;;;;4902320;28;20910;-74
2024/03/31 04:04:45;;;;;;;60.33;50.00;;;;;;;;;;4905778;29;20224;-75
2024/03/31 04:07:11;;;;;;;55.93;48.13;;;;;;;;;;4901851;28;20225;-74
2024/03/31 04:09:36;;;;;;;58.53;49.23;;;;;;;;;;4911311;29;20225;-74
2024/03/31 04:12:05;;;;;;;57.00;48.80;;;;;;;;;;4903782;28;20430;-74
2024/03/31 04:14:33;;;;;;;56.73;50.63;;;;;;;;;;4879915;29;20225;-74
2024/03/31 04:16:59;;;;;;;55.47;48.53;;;;;;;;;;4916859;28;20710;-73
2024/03/31 04:19:27;;;;;;;57.37;49.07;;;;;;;;;;4935670;28;20224;-73
2024/03/31 04:21:53;;;;;;;54.37;48.03;;;;;;;;;;4904005;29;20232;-73
2024/03/31 04:24:21;;;;;;;56.70;50.50;;;;;;;;;;4896371;29;20786;-74
2024/03/31 04:26:48;;;;;;;54.90;48.97;;;;;;;;;;4923675;28;20221;-73
2024/03/31 04:29:18;;;;;;;54.77;48.77;;;;;;;;;;4907768;28;20229;-73
2024/03/31 04:31:56;;;;;;;53.93;48.13;;;;;;;;;;4886572;29;20706;-73
2024/03/31 04:34:26;;;;;;;54.00;48.30;;;;;;;;;;4908827;29;20284;-74
2024/03/31 04:36:53;;;;;;;58.30;49.90;;;;;;;;;;4925579;28;20224;-74
2024/03/31 04:39:21;;;;;;;55.30;49.40;;;;;;;;;;4906568;29;20265;-72
2024/03/31 04:41:49;;;;;;;54.33;48.63;;;;;;;;;;4921135;28;20224;-74
2024/03/31 04:44:15;;;;;;;53.37;46.40;;;;;;;;;;4927526;28;20298;-74
2024/03/31 04:46:40;;;;;;;57.30;51.07;;;;;;;;;;4904598;29;20718;-74
2024/03/31 04:49:08;;;;;;;55.20;49.53;;;;;;;;;;4911144;28;20578;-76
2024/03/31 04:51:34;;;;;;;57.00;50.60;;;;;;;;;;4934781;28;20725;-73
2024/03/31 04:54:02;;;;;;;55.17;48.60;;;;;;;;;;4933375;28;20599;-74
2024/03/31 04:56:28;;;;;;;54.30;48.70;;;;;;;;;;4921520;28;20292;-74
2024/03/31 04:58:53;;;;;;;54.87;49.10;;;;;;;;;;4906496;28;20237;-74
2024/03/31 05:01:19;;;;;;;52.70;46.97;;;;;;;;;;4918160;28;20235;-75
2024/03/31 05:03:49;;;;;;;54.17;48.37;;;;;;;;;;4920775;28;20232;-74
2024/03/31 05:06:19;;;;;;;54.23;47.97;;;;;;;;;;4917966;28;20235;-74
2024/03/31 05:08:45;;;;;;;52.67;46.93;;;;;;;;;;4917776;28;20748;-73
2024/03/31 05:11:15;;;;;;;52.93;47.30;;;;;;;;;;4932734;28;20254;-74
2024/03/31 05:13:41;;;;;;;56.97;50.73;;;;;;;;;;4920108;28;20259;-74
2024/03/31 05:16:12;;;;;;;56.07;49.97;;;;;;;;;;4902505;29;20233;-74
2024/03/31 05:18:40;;;;;;;55.60;49.67;;;;;;;;;;4904145;29;20223;-74
2024/03/31 05:21:11;;;;;;;55.90;49.80;;;;;;;;;;4919104;28;20748;-74
2024/03/31 05:23:42;;;;;;;54.73;48.93;;;;;;;;;;4931918;28;20233;-75
2024/03/31 05:26:18;;;;;;;54.00;48.30;;;;;;;;;;4916450;28;20228;-74
2024/03/31 05:28:47;;;;;;;55.27;49.03;;;;;;;;;;4930804;28;20221;-74
2024/03/31 05:31:17;;;;;;;57.70;49.60;;;;;;;;;;4936096;28;20611;-74
2024/03/31 05:33:52;;;;;;;59.60;49.97;;;;;;;;;;4918436;28;20264;-74
2024/03/31 05:36:18;;;;;;;60.47;51.23;;;;;;;;;;4916165;28;20243;-74
2024/03/31 05:38:43;;;;;;;57.63;49.97;;;;;;;;;;4900348;29;20221;-74
2024/03/31 05:41:16;;;;;;;56.30;48.07;;;;;;;;;;4930346;28;20235;-74
2024/03/31 05:43:42;;;;;;;52.80;46.90;;;;;;;;;;4918621;28;20228;-74
2024/03/31 05:46:07;;;;;;;51.70;45.10;;;;;;;;;;4901070;29;20270;-74
2024/03/31 05:48:33;;;;;;;49.83;44.53;;;;;;;;;;4899984;28;20216;-74
2024/03/31 05:51:03;;;;;;;48.67;43.27;;;;;;;;;;4903167;29;20316;-74
2024/03/31 05:53:33;;;;;;;48.23;41.87;;;;;;;;;;4914856;29;20282;-74
2024/03/31 05:55:59;;;;;;;49.57;41.57;;;;;;;;;;4901910;28;20285;-74
2024/03/31 05:58:25;;;;;;;46.70;41.43;;;;;;;;;;4902900;28;20220;-74
2024/03/31 06:00:56;;;;;;;45.67;39.77;;;;;;;;;;4903632;29;20348;-73
2024/03/31 06:03:27;;;;;;;46.67;40.87;;;;;;;;;;4905734;29;22542;-73
2024/03/31 06:05:54;;;;;;;43.33;38.50;;;;;;;;;;4887225;29;20317;-73
2024/03/31 06:08:22;;;;;;;46.57;38.97;;;;;;;;;;4923726;28;20299;-75
2024/03/31 06:10:48;;;;;;;42.30;37.73;;;;;;;;;;4934817;28;20308;-74
2024/03/31 06:13:16;;;;;;;41.93;37.07;;;;;;;;;;4916129;28;20244;-74
2024/03/31 06:15:45;;;;;;;41.83;37.50;;;;;;;;;;4917152;28;20307;-73
2024/03/31 06:18:12;;;;;;;43.33;38.47;;;;;;;;;;4902772;29;20588;-74
2024/03/31 06:20:40;;;;;;;43.43;38.73;;;;;;;;;;4902366;28;20318;-74
2024/03/31 06:23:06;;;;;;;46.03;39.90;;;;;;;;;;4888175;28;20244;-75
2024/03/31 06:25:36;;;;;;;43.07;38.00;;;;;;;;;;4918339;28;20251;-74
2024/03/31 06:28:04;;;;;;;42.90;38.30;;;;;;;;;;4916606;28;20659;-74
2024/03/31 06:30:32;;;;;;;43.43;35.97;;;;;;;;;;4916733;28;20227;-74
2024/03/31 06:32:58;;;;;;;40.80;35.00;;;;;;;;;;4901700;29;20263;-74
2024/03/31 06:35:24;;;;;;;37.13;33.27;;;;;;;;;;4899946;28;20225;-74
2024/03/31 06:37:55;;;;;;;38.00;33.13;;;;;;;;;;4915261;28;20221;-74
2024/03/31 06:40:21;;;;;;;43.13;37.70;;;;;;;;;;4924946;28;20216;-74
2024/03/31 06:42:46;;;;;;;44.73;39.93;;;;;;;;;;4914509;28;20224;-74
2024/03/31 06:45:12;;;;;;;49.67;40.23;;;;;;;;;;4909104;28;20231;-74
2024/03/31 06:47:43;;;;;;;46.90;38.93;;;;;;;;;;4894296;29;20303;-73
2024/03/31 06:50:08;;;;;;;43.50;36.70;;;;;;;;;;4900438;28;20622;-74
2024/03/31 06:52:38;;;;;;;41.97;35.93;;;;;;;;;;4935950;28;20239;-74
2024/03/31 06:55:04;;;;;;;39.17;34.17;;;;;;;;;;4931687;28;20228;-75
2024/03/31 06:57:32;;;;;;;38.10;33.77;;;;;;;;;;4923783;28;20240;-75
2024/03/31 07:00:00;;;;;;;41.37;34.63;;;;;;;;;;4901485;28;20704;-74
2024/03/31 07:02:25;;;;;;;36.50;32.43;;;;;;;;;;4914447;28;20235;-75
2024/03/31 07:04:51;;;;;;;37.13;32.87;;;;;;;;;;4930939;28;20263;-73
2024/03/31 07:07:17;;;;;;;37.20;32.23;;;;;;;;;;4931406;28;20714;-75
2024/03/31 07:09:46;;;;;;;37.27;31.50;;;;;;;;;;4902652;29;20217;-75
2024/03/31 07:12:16;;;;;;;34.97;31.17;;;;;;;;;;4917685;28;20662;-75
2024/03/31 07:14:48;;;;;;;37.60;30.43;;;;;;;;;;4904822;29;20226;-74
2024/03/31 07:17:17;;;;;;;36.90;30.73;;;;;;;;;;4918075;28;20771;-73
2024/03/31 07:19:43;;;;;;;34.00;29.67;;;;;;;;;;4921031;28;20633;-74
2024/03/31 07:22:09;;;;;;;33.90;29.50;;;;;;;;;;4906281;28;20300;-74
2024/03/31 07:24:35;;;;;;;33.17;29.33;;;;;;;;;;4922833;28;20232;-75
2024/03/31 07:27:03;;;;;;;33.67;29.13;;;;;;;;;;4935040;28;20216;-75
2024/03/31 07:29:34;;;;;;;33.77;28.77;;;;;;;;;;4907428;28;20268;-74
2024/03/31 07:31:59;;;;;;;34.00;29.20;;;;;;;;;;4922844;29;20596;-74
2024/03/31 07:34:26;;;;;;;33.57;28.30;;;;;;;;;;4904096;29;20228;-75
2024/03/31 07:36:52;;;;;;;31.20;27.27;;;;;;;;;;4909662;29;20710;-75
2024/03/31 07:39:17;;;;;;;31.93;27.77;;;;;;;;;;4920729;28;20239;-75
2024/03/31 07:41:45;;;;;;;31.17;27.77;;;;;;;;;;4912046;28;20231;-74
2024/03/31 07:44:11;;;;;;;31.50;27.63;;;;;;;;;;4919445;28;20650;-73
2024/03/31 07:46:37;;;;;;;31.20;27.90;;;;;;;;;;4921203;29;20319;-75
2024/03/31 07:49:02;;;;;;;32.40;28.17;;;;;;;;;;4921238;28;20220;-75
2024/03/31 07:51:28;;;;;;;29.73;26.53;;;;;;;;;;4911565;28;20224;-74
2024/03/31 07:53:53;;;;;;;29.47;26.37;;;;;;;;;;4904832;29;20239;-75
2024/03/31 07:56:23;;;;;;;28.40;25.50;;;;;;;;;;4934934;28;20669;-74
2024/03/31 07:58:49;;;;;;;29.53;26.43;;;;;;;;;;4920170;28;20646;-73
2024/03/31 08:01:14;;;;;;;29.33;26.17;;;;;;;;;;4919904;28;20224;-74
2024/03/31 08:03:42;;;;;;;28.27;25.10;;;;;;;;;;4924966;28;20231;-73
2024/03/31 08:06:08;;;;;;;29.47;25.77;;;;;;;;;;4901548;28;20586;-74
2024/03/31 08:08:38;;;;;;;28.30;25.03;;;;;;;;;;4933992;28;20232;-73
2024/03/31 08:11:04;;;;;;;28.07;25.17;;;;;;;;;;4933622;28;20321;-73
2024/03/31 08:13:31;;;;;;;29.87;25.43;;;;;;;;;;4912089;28;20228;-73
2024/03/31 08:15:57;;;;;;;30.43;27.23;;;;;;;;;;4905944;28;20235;-75
2024/03/31 08:18:22;;;;;;;28.83;25.83;;;;;;;;;;4924188;28;20233;-73
2024/03/31 08:20:50;;;;;;;28.37;25.47;;;;;;;;;;4882592;29;20225;-73
2024/03/31 08:23:16;;;;;;;28.70;25.60;;;;;;;;;;4935369;28;20243;-73
2024/03/31 08:25:56;;;;;;;29.13;26.03;;;;;;;;;;4937205;28;20221;-73
2024/03/31 08:28:24;;;;;;;28.47;25.50;;;;;;;;;;4902787;28;20232;-74
2024/03/31 08:30:52;;;;;;;28.87;25.87;;;;;;;;;;4895007;29;20220;-74
2024/03/31 08:33:17;;;;;;;28.70;25.83;;;;;;;;;;4933748;28;20235;-73
2024/03/31 08:35:52;;;;;;;26.77;24.07;;;;;;;;;;4905069;28;20211;-72
2024/03/31 08:38:19;;;;;;;27.40;24.63;;;;;;;;;;4901893;29;20724;-72
2024/03/31 08:40:47;;;;;;;26.67;23.87;;;;;;;;;;4905907;28;20220;-75
2024/03/31 08:43:21;;;;;;;26.57;23.97;;;;;;;;;;4904505;28;20678;-74
2024/03/31 08:45:47;;;;;;;27.07;24.33;;;;;;;;;;4927704;28;20243;-75
2024/03/31 08:48:12;;;;;;;26.10;23.50;;;;;;;;;;4932816;28;20721;-75
2024/03/31 08:50:45;;;;;;;27.50;24.70;;;;;;;;;;4891731;29;20564;-75
2024/03/31 08:53:12;;;;;;;27.40;24.60;;;;;;;;;;4918605;28;20589;-75
2024/03/31 08:55:39;;;;;;;28.33;25.30;;;;;;;;;;4934311;28;20228;-75
2024/03/31 08:58:06;;;;;;;27.80;25.07;;;;;;;;;;4904606;28;20231;-74
2024/03/31 09:00:39;;;;;;;28.20;25.37;;;;;;;;;;4910036;28;20721;-74
2024/03/31 09:03:05;;;;;;;27.27;24.50;;;;;;;;;;4916332;29;20257;-74
2024/03/31 09:05:33;;;;;;;27.10;24.20;;;;;;;;;;4906143;29;20255;-74
2024/03/31 09:08:00;;;;;;;28.57;25.67;;;;;;;;;;4919791;28;20224;-74
2024/03/31 09:10:26;;;;;;;28.37;25.37;;;;;;;;;;4901529;29;20724;-74
2024/03/31 09:12:54;;;;;;;28.50;25.57;;;;;;;;;;4878505;29;20248;-75
2024/03/31 09:15:22;;;;;;;29.47;26.20;;;;;;;;;;4914175;28;20243;-74
2024/03/31 09:17:50;;;;;;;29.67;26.57;;;;;;;;;;4905201;28;20216;-75
2024/03/31 09:20:15;;;;;;;29.13;26.07;;;;;;;;;;4888461;28;20238;-74
2024/03/31 09:22:41;;;;;;;28.13;25.23;;;;;;;;;;4903565;28;20682;-74
2024/03/31 09:25:14;;;;;;;27.47;24.67;;;;;;;;;;4904245;28;20703;-74
2024/03/31 09:27:42;;;;;;;26.73;23.97;;;;;;;;;;4903196;28;20216;-74
2024/03/31 09:30:10;;;;;;;25.47;22.77;;;;;;;;;;4902514;28;20217;-74
2024/03/31 09:32:35;;;;;;;28.03;25.27;;;;;;;;;;4931252;28;20236;-74
2024/03/31 09:35:03;;;;;;;26.47;23.97;;;;;;;;;;4917901;28;20220;-75
2024/03/31 09:37:29;;;;;;;24.10;21.70;;;;;;;;;;4901239;29;20787;-74
2024/03/31 09:39:54;;;;;;;23.70;21.33;;;;;;;;;;4890771;29;20240;-74
2024/03/31 09:42:20;;;;;;;23.33;21.17;;;;;;;;;;4900470;28;20229;-74
2024/03/31 09:44:45;;;;;;;23.40;21.00;;;;;;;;;;4902491;28;20276;-74
2024/03/31 09:47:31;;;;;;;24.10;21.90;;;;;;;;;;4917637;28;20220;-74
2024/03/31 09:50:22;;;;;;;23.60;21.20;;;;;;;;;;4918052;28;20224;-73
2024/03/31 09:52:51;;;;;;;24.77;22.47;;;;;;;;;;4904069;29;20228;-73
2024/03/31 09:55:25;;;;;;;24.43;22.03;;;;;;;;;;4906784;28;20229;-74
2024/03/31 09:57:53;;;;;;;24.03;21.73;;;;;;;;;;4920368;28;20224;-74
2024/03/31 10:00:26;;;;;;;24.00;21.67;;;;;;;;;;4924411;28;20670;-74
2024/03/31 10:03:07;;;;;;;23.83;21.40;;;;;;;;;;4906166;29;20726;-73
2024/03/31 10:05:36;;;;;;;23.60;21.27;;;;;;;;;;4919542;28;20306;-73
2024/03/31 10:08:04;;;;;;;22.50;20.23;;;;;;;;;;4921343;29;20217;-73
2024/03/31 10:10:32;;;;;;;23.80;21.50;;;;;;;;;;4908228;28;20227;-73
2024/03/31 10:13:00;;;;;;;24.37;22.07;;;;;;;;;;4878717;29;20216;-74
2024/03/31 10:15:28;;;;;;;23.20;21.00;;;;;;;;;;4931617;28;20287;-73
2024/03/31 10:17:53;;;;;;;22.67;20.47;;;;;;;;;;4932786;28;20228;-73
2024/03/31 10:20:23;;;;;;;22.17;19.97;;;;;;;;;;4920857;28;20275;-74
2024/03/31 10:22:49;;;;;;;22.07;19.93;;;;;;;;;;4886052;29;20224;-74
2024/03/31 10:25:14;;;;;;;19.90;18.10;;;;;;;;;;4886081;29;20332;-75
2024/03/31 10:27:43;;;;;;;19.30;17.47;;;;;;;;;;4899751;28;20221;-75
2024/03/31 10:30:14;;;;;;;18.77;17.07;;;;;;;;;;4926210;28;20220;-75
2024/03/31 10:32:41;;;;;;;19.40;17.60;;;;;;;;;;4916829;28;20247;-75
2024/03/31 10:35:11;;;;;;;19.23;17.33;;;;;;;;;;4898066;28;20225;-74
2024/03/31 10:37:37;;;;;;;18.77;17.07;;;;;;;;;;4932681;28;20725;-75
2024/03/31 10:40:04;;;;;;;18.83;17.03;;;;;;;;;;4903010;29;20221;-73
2024/03/31 10:42:32;;;;;;;17.77;16.02;;;;;;;;;;4916257;28;20228;-74
2024/03/31 10:44:57;;;;;;;17.30;15.73;;;;;;;;;;4919232;28;20294;-73
2024/03/31 10:47:27;;;;;;;17.23;15.53;;;;;;;;;;4914179;28;20594;-73
2024/03/31 10:49:59;;;;;;;17.65;16.10;;;;;;;;;;4917707;28;20228;-72
2024/03/31 10:52:31;;;;;;;15.63;14.18;;;;;;;;;;4932431;28;20244;-75
2024/03/31 10:54:59;;;;;;;14.63;13.32;;;;;;;;;;4930262;28;20224;-75
2024/03/31 10:57:39;;;;;;;14.60;13.25;;;;;;;;;;4919242;28;20584;-74
2024/03/31 11:00:06;;;;;;;14.93;13.63;;;;;;;;;;4919027;28;20227;-73
2024/03/31 11:02:36;;;;;;;14.65;13.45;;;;;;;;;;4914948;28;20320;-76
2024/03/31 11:05:09;;;;;;;15.45;13.95;;;;;;;;;;4901835;29;20243;-75
2024/03/31 11:07:35;;;;;;;14.95;13.65;;;;;;;;;;4911494;28;20236;-75
2024/03/31 11:10:01;;;;;;;13.98;12.75;;;;;;;;;;4908072;29;20224;-75
2024/03/31 11:12:26;;;;;;;14.10;12.80;;;;;;;;;;4906027;28;20220;-74
2024/03/31 11:14:55;;;;;;;14.27;12.98;;;;;;;;;;4902980;29;20235;-74
2024/03/31 11:17:20;;;;;;;13.70;12.45;;;;;;;;;;4918862;28;20216;-74
2024/03/31 11:19:46;;;;;;;14.15;12.75;;;;;;;;;;4901991;28;20308;-74
2024/03/31 11:22:13;;;;;;;14.30;13.00;;;;;;;;;;4901985;28;20232;-74
2024/03/31 11:24:44;;;;;;;14.40;13.00;;;;;;;;;;4901248;29;20224;-74
2024/03/31 11:27:14;;;;;;;14.17;12.80;;;;;;;;;;4911778;28;20216;-73
2024/03/31 11:29:42;;;;;;;13.97;12.73;;;;;;;;;;4916952;28;20726;-73
2024/03/31 11:32:12;;;;;;;14.57;13.17;;;;;;;;;;4932596;28;20622;-73
2024/03/31 11:34:41;;;;;;;14.93;12.77;;;;;;;;;;4915752;29;20232;-74
2024/03/31 11:37:06;;;;;;;13.93;12.43;;;;;;;;;;4886156;29;20212;-72
2024/03/31 11:39:35;;;;;;;13.13;11.93;;;;;;;;;;4902695;28;20571;-73
2024/03/31 11:42:05;;;;;;;13.97;12.67;;;;;;;;;;4910005;29;20232;-74
2024/03/31 11:44:35;;;;;;;14.93;13.53;;;;;;;;;;4924459;28;20228;-74
2024/03/31 11:47:03;;;;;;;14.85;13.35;;;;;;;;;;4917188;28;20360;-74
2024/03/31 11:49:29;;;;;;;13.20;11.90;;;;;;;;;;4900795;29;20254;-74
2024/03/31 11:51:54;;;;;;;12.47;11.17;;;;;;;;;;4889456;29;20682;-74
2024/03/31 11:54:22;;;;;;;13.33;11.57;;;;;;;;;;4902855;28;20229;-74
2024/03/31 11:56:50;;;;;;;12.93;11.73;;;;;;;;;;4934413;28;20216;-74
2024/03/31 11:59:21;;;;;;;11.80;10.80;;;;;;;;;;4886473;29;20231;-73
2024/03/31 12:02:01;;;;;;;13.07;11.77;;;;;;;;;;4900361;28;20236;-74
2024/03/31 12:04:27;;;;;;;12.40;11.20;;;;;;;;;;4917221;29;20220;-73
2024/03/31 12:06:53;;;;;;;8.77;7.93;;;;;;;;;;4919801;28;20774;-73
2024/03/31 12:09:19;;;;;;;8.90;7.35;;;;;;;;;;4921745;28;20220;-74
2024/03/31 12:11:47;;;;;;;8.63;7.82;;;;;;;;;;4902390;29;20308;-74
2024/03/31 12:14:18;;;;;;;7.65;6.60;;;;;;;;;;4888605;29;20229;-73
2024/03/31 12:16:44;;;;;;;8.17;7.47;;;;;;;;;;4921281;28;20296;-74
2024/03/31 12:19:12;;;;;;;8.53;7.73;;;;;;;;;;4918212;28;20260;-74
2024/03/31 12:21:38;;;;;;;7.72;6.80;;;;;;;;;;4916692;29;20244;-74
2024/03/31 12:24:04;;;;;;;8.57;7.88;;;;;;;;;;4924047;28;20228;-74
2024/03/31 12:26:33;;;;;;;6.38;5.50;;;;;;;;;;4919249;28;20296;-74
2024/03/31 12:28:58;;;;;;;6.85;5.85;;;;;;;;;;4916825;29;20308;-73
2024/03/31 12:31:27;;;;;;;5.65;5.05;;;;;;;;;;4918821;28;20223;-73
2024/03/31 12:33:53;;;;;;;6.53;5.78;;;;;;;;;;4918975;28;20240;-73
2024/03/31 12:36:18;;;;;;;7.13;6.43;;;;;;;;;;4920400;28;20225;-73
2024/03/31 12:38:46;;;;;;;7.18;4.93;;;;;;;;;;4935976;28;20283;-73
2024/03/31 12:41:15;;;;;;;6.97;5.57;;;;;;;;;;4934021;28;20220;-73
2024/03/31 12:43:44;;;;;;;6.65;5.80;;;;;;;;;;4918294;28;20235;-73
2024/03/31 12:46:11;;;;;;;8.02;5.15;;;;;;;;;;4918959;28;20408;-75
2024/03/31 12:48:48;;;;;;;5.25;4.72;;;;;;;;;;4918581;28;20227;-74
2024/03/31 12:51:22;;;;;;;5.32;4.75;;;;;;;;;;4933284;28;20267;-75
2024/03/31 12:53:48;;;;;;;5.13;4.28;;;;;;;;;;4921738;28;20714;-75
2024/03/31 12:56:19;;;;;;;6.40;3.97;;;;;;;;;;4916121;29;20229;-76
2024/03/31 12:58:49;;;;;;;5.95;4.20;;;;;;;;;;4919962;28;20251;-75
2024/03/31 13:01:22;;;;;;;6.28;4.20;;;;;;;;;;4933991;28;20612;-76
2024/03/31 13:03:47;;;;;;;5.45;3.80;;;;;;;;;;4936179;28;20366;-75
2024/03/31 13:06:15;;;;;;;4.18;3.25;;;;;;;;;;4936329;28;20307;-75
2024/03/31 13:08:47;;;;;;;6.68;3.78;;;;;;;;;;4925227;28;20237;-74
2024/03/31 13:11:18;;;;;;;5.30;3.20;;;;;;;;;;4918896;28;20207;-74
2024/03/31 13:13:45;;;;;;;6.97;3.50;;;;;;;;;;4915261;28;20228;-74
2024/03/31 13:16:13;;;;;;;6.55;3.13;;;;;;;;;;4909609;28;20609;-74
2024/03/31 13:18:39;;;;;;;5.00;3.10;;;;;;;;;;4932361;28;20627;-74
2024/03/31 13:21:06;;;;;;;6.97;3.03;;;;;;;;;;4908698;28;20237;-74
2024/03/31 13:23:31;;;;;;;5.47;2.80;;;;;;;;;;4925378;28;20239;-74
2024/03/31 13:26:02;;;;;;;9.18;3.22;;;;;;;;;;4936947;28;20735;-74
2024/03/31 13:28:28;;;;;;;4.63;2.90;;;;;;;;;;4903818;29;20635;-74
2024/03/31 13:30:57;;;;;;;6.50;3.38;;;;;;;;;;4902478;28;20227;-73
2024/03/31 13:33:22;;;;;;;5.18;3.08;;;;;;;;;;4919215;28;20256;-74
2024/03/31 13:35:48;;;;;;;3.90;2.40;;;;;;;;;;4916924;28;20244;-73
2024/03/31 13:38:15;;;;;;;3.70;2.70;;;;;;;;;;4903273;28;20228;-74
2024/03/31 13:40:41;;;;;;;4.43;2.90;;;;;;;;;;4916613;28;20725;-74
2024/03/31 13:43:07;;;;;;;3.65;2.75;;;;;;;;;;4918571;28;20235;-74
2024/03/31 13:45:32;;;;;;;4.68;2.75;;;;;;;;;;4900856;29;20235;-73
2024/03/31 13:48:00;;;;;;;5.72;3.00;;;;;;;;;;4933861;28;20235;-74
2024/03/31 13:50:28;;;;;;;3.90;3.00;;;;;;;;;;4919065;29;20691;-74
2024/03/31 13:52:53;;;;;;;4.80;2.60;;;;;;;;;;4899797;29;20237;-76
2024/03/31 13:55:19;;;;;;;5.90;2.78;;;;;;;;;;4890460;28;20235;-74
2024/03/31 13:57:47;;;;;;;4.85;2.40;;;;;;;;;;4900383;29;20921;-73
2024/03/31 14:00:18;;;;;;;4.43;2.30;;;;;;;;;;4934640;28;20232;-73
2024/03/31 14:02:48;;;;;;;7.30;2.60;;;;;;;;;;4930032;28;20244;-74
2024/03/31 14:05:13;;;;;;;6.10;2.40;;;;;;;;;;4919202;28;20227;-74
2024/03/31 14:07:41;;;;;;;5.50;2.60;;;;;;;;;;4919229;28;20224;-73
2024/03/31 14:10:08;;;;;;;6.25;2.13;;;;;;;;;;4930690;28;20228;-73
2024/03/31 14:12:36;;;;;;;4.38;2.25;;;;;;;;;;4903248;29;20228;-74
2024/03/31 14:15:04;;;;;;;7.53;2.42;;;;;;;;;;4909640;28;20247;-74
2024/03/31 14:17:30;;;;;;;4.63;2.13;;;;;;;;;;4902022;28;20235;-73
2024/03/31 14:19:55;;;;;;;4.55;2.17;;;;;;;;;;4900417;29;20220;-74
2024/03/31 14:22:21;;;;;;;7.10;2.08;;;;;;;;;;4918043;28;20690;-74
2024/03/31 14:24:46;;;;;;;7.43;2.10;;;;;;;;;;4932867;28;20224;-74
2024/03/31 14:27:16;;;;;;;6.57;2.17;;;;;;;;;;4904253;29;20314;-74
2024/03/31 14:29:41;;;;;;;5.82;2.13;;;;;;;;;;4901468;28;20358;-74